sensor_id;sensor_type;location;lat;lon;timestamp;pressure;altitude;pressure_sealevel;temperature;humidity
37066;BME280;22981;43.080;25.550;2023-02-03T00:02:05;99797.73;;;2.64;64.93
37066;BME280;22981;43.080;25.550;2023-02-03T00:04:32;99797.42;;;2.67;64.74
37066;BME280;22981;43.080;25.550;2023-02-03T00:07:00;99802.89;;;2.70;64.66
37066;BME280;22981;43.080;25.550;2023-02-03T00:09:27;99808.19;;;2.70;64.58
37066;BME280;22981;43.080;25.550;2023-02-03T00:11:55;99806.52;;;2.73;64.48
37066;BME280;22981;43.080;25.550;2023-02-03T00:14:23;99804.56;;;2.75;64.38
37066;BME280;22981;43.080;25.550;2023-02-03T00:16:50;99803.58;;;2.80;64.23
37066;BME280;22981;43.080;25.550;2023-02-03T00:19:18;99806.41;;;2.83;64.11
37066;BME280;22981;43.080;25.550;2023-02-03T00:21:46;99812.17;;;2.86;64.05
37066;BME280;22981;43.080;25.550;2023-02-03T00:24:13;99813.85;;;2.87;64.07
37066;BME280;22981;43.080;25.550;2023-02-03T00:26:42;99817.46;;;2.86;64.20
37066;BME280;22981;43.080;25.550;2023-02-03T00:29:10;99804.59;;;2.87;64.19
37066;BME280;22981;43.080;25.550;2023-02-03T00:31:39;99809.89;;;2.91;64.09
37066;BME280;22981;43.080;25.550;2023-02-03T00:34:06;99802.80;;;2.96;63.94
37066;BME280;22981;43.080;25.550;2023-02-03T00:36:35;99802.45;;;2.99;63.80
37066;BME280;22981;43.080;25.550;2023-02-03T00:39:03;99808.11;;;3.04;63.73
37066;BME280;22981;43.080;25.550;2023-02-03T00:41:30;99818.34;;;3.07;63.67
37066;BME280;22981;43.080;25.550;2023-02-03T00:43:58;99819.02;;;3.09;63.63
37066;BME280;22981;43.080;25.550;2023-02-03T00:46:25;99820.00;;;3.12;63.56
37066;BME280;22981;43.080;25.550;2023-02-03T00:48:53;99817.03;;;3.15;63.48
37066;BME280;22981;43.080;25.550;2023-02-03T00:51:20;99812.42;;;3.17;63.40
37066;BME280;22981;43.080;25.550;2023-02-03T00:53:48;99807.61;;;3.21;63.26
37066;BME280;22981;43.080;25.550;2023-02-03T00:56:16;99796.05;;;3.22;63.20
37066;BME280;22981;43.080;25.550;2023-02-03T00:58:43;99795.38;;;3.24;63.20
37066;BME280;22981;43.080;25.550;2023-02-03T01:01:11;99794.38;;;3.25;63.20
37066;BME280;22981;43.080;25.550;2023-02-03T01:03:39;99802.67;;;3.26;63.12
37066;BME280;22981;43.080;25.550;2023-02-03T01:06:11;99803.64;;;3.29;63.00
37066;BME280;22981;43.080;25.550;2023-02-03T01:08:40;99806.65;;;3.30;62.94
37066;BME280;22981;43.080;25.550;2023-02-03T01:11:14;99807.30;;;3.28;62.94
37066;BME280;22981;43.080;25.550;2023-02-03T01:13:43;99801.17;;;3.28;62.97
37066;BME280;22981;43.080;25.550;2023-02-03T01:16:12;99813.09;;;3.28;63.05
37066;BME280;22981;43.080;25.550;2023-02-03T01:18:40;99815.23;;;3.28;63.05
37066;BME280;22981;43.080;25.550;2023-02-03T01:21:13;99816.55;;;3.28;63.04
37066;BME280;22981;43.080;25.550;2023-02-03T01:23:41;99812.27;;;3.27;62.95
37066;BME280;22981;43.080;25.550;2023-02-03T01:26:11;99816.88;;;3.29;62.92
37066;BME280;22981;43.080;25.550;2023-02-03T01:28:39;99816.55;;;3.28;62.91
37066;BME280;22981;43.080;25.550;2023-02-03T01:31:16;99815.23;;;3.28;62.83
37066;BME280;22981;43.080;25.550;2023-02-03T01:33:44;99807.62;;;3.29;62.83
37066;BME280;22981;43.080;25.550;2023-02-03T01:36:15;99805.97;;;3.28;62.84
37066;BME280;22981;43.080;25.550;2023-02-03T01:38:44;99811.77;;;3.28;62.84
37066;BME280;22981;43.080;25.550;2023-02-03T01:41:15;99812.09;;;3.29;62.87
37066;BME280;22981;43.080;25.550;2023-02-03T01:43:49;99816.55;;;3.28;62.86
37066;BME280;22981;43.080;25.550;2023-02-03T01:48:48;99819.38;;;3.31;62.82
37066;BME280;22981;43.080;25.550;2023-02-03T01:51:16;99824.83;;;3.33;62.80
37066;BME280;22981;43.080;25.550;2023-02-03T01:53:44;99824.18;;;3.35;62.80
37066;BME280;22981;43.080;25.550;2023-02-03T01:56:11;99821.03;;;3.36;62.78
37066;BME280;22981;43.080;25.550;2023-02-03T01:58:40;99812.27;;;3.35;62.84
37066;BME280;22981;43.080;25.550;2023-02-03T02:01:09;99801.83;;;3.34;62.88
37066;BME280;22981;43.080;25.550;2023-02-03T02:03:45;99803.65;;;3.33;62.91
37066;BME280;22981;43.080;25.550;2023-02-03T02:06:13;99815.23;;;3.32;62.93
37066;BME280;22981;43.080;25.550;2023-02-03T02:08:43;99820.84;;;3.29;62.97
37066;BME280;22981;43.080;25.550;2023-02-03T02:11:11;99816.73;;;3.26;62.98
37066;BME280;22981;43.080;25.550;2023-02-03T02:13:39;99820.19;;;3.23;63.01
37066;BME280;22981;43.080;25.550;2023-02-03T02:16:23;99825.16;;;3.22;63.09
37066;BME280;22981;43.080;25.550;2023-02-03T02:19:22;99822.66;;;3.20;63.10
37066;BME280;22981;43.080;25.550;2023-02-03T02:22:08;99821.19;;;3.22;63.09
37066;BME280;22981;43.080;25.550;2023-02-03T02:27:25;99832.73;;;3.17;63.15
37066;BME280;22981;43.080;25.550;2023-02-03T02:35:35;99824.97;;;3.15;63.27
37066;BME280;22981;43.080;25.550;2023-02-03T02:38:02;99824.97;;;3.15;63.28
37066;BME280;22981;43.080;25.550;2023-02-03T02:40:49;99824.32;;;3.13;63.26
37066;BME280;22981;43.080;25.550;2023-02-03T02:43:22;99823.50;;;3.13;63.34
37066;BME280;22981;43.080;25.550;2023-02-03T02:45:59;99831.25;;;3.10;63.37
37066;BME280;22981;43.080;25.550;2023-02-03T02:51:10;99826.45;;;3.06;63.50
37066;BME280;22981;43.080;25.550;2023-02-03T02:53:45;99832.38;;;3.04;63.54
37066;BME280;22981;43.080;25.550;2023-02-03T02:56:12;99824.79;;;3.00;63.60
37066;BME280;22981;43.080;25.550;2023-02-03T02:58:43;99837.66;;;2.99;63.62
37066;BME280;22981;43.080;25.550;2023-02-03T03:01:12;99833.53;;;2.97;63.69
37066;BME280;22981;43.080;25.550;2023-02-03T03:03:41;99843.30;;;2.96;63.74
37066;BME280;22981;43.080;25.550;2023-02-03T03:06:25;99840.46;;;2.94;63.77
37066;BME280;22981;43.080;25.550;2023-02-03T03:08:55;99837.81;;;2.94;63.79
37066;BME280;22981;43.080;25.550;2023-02-03T03:11:28;99836.81;;;2.91;63.81
37066;BME280;22981;43.080;25.550;2023-02-03T03:13:56;99839.63;;;2.89;63.87
37066;BME280;22981;43.080;25.550;2023-02-03T03:16:26;99836.33;;;2.87;63.92
37066;BME280;22981;43.080;25.550;2023-02-03T03:19:00;99846.91;;;2.87;63.93
37066;BME280;22981;43.080;25.550;2023-02-03T03:21:31;99843.77;;;2.88;63.96
37066;BME280;22981;43.080;25.550;2023-02-03T03:24:01;99848.06;;;2.89;64.00
37066;BME280;22981;43.080;25.550;2023-02-03T03:26:35;99848.87;;;2.89;64.03
37066;BME280;22981;43.080;25.550;2023-02-03T03:31:36;99853.83;;;2.84;64.15
37066;BME280;22981;43.080;25.550;2023-02-03T03:34:04;99865.06;;;2.86;64.23
37066;BME280;22981;43.080;25.550;2023-02-03T03:36:41;99868.55;;;2.83;64.28
37066;BME280;22981;43.080;25.550;2023-02-03T03:39:23;99875.64;;;2.86;64.36
37066;BME280;22981;43.080;25.550;2023-02-03T03:41:56;99877.78;;;2.87;64.40
37066;BME280;22981;43.080;25.550;2023-02-03T03:44:27;99876.95;;;2.86;64.45
37066;BME280;22981;43.080;25.550;2023-02-03T03:47:05;99883.07;;;2.87;64.52
37066;BME280;22981;43.080;25.550;2023-02-03T03:49:28;99875.14;;;2.87;64.61
37066;BME280;22981;43.080;25.550;2023-02-03T03:52:00;99881.94;;;2.89;64.72
37066;BME280;22981;43.080;25.550;2023-02-03T03:54:29;99881.94;;;2.89;64.72
37066;BME280;22981;43.080;25.550;2023-02-03T03:57:01;99881.44;;;2.90;64.77
37066;BME280;22981;43.080;25.550;2023-02-03T03:59:30;99895.84;;;2.91;64.83
37066;BME280;22981;43.080;25.550;2023-02-03T04:01:59;99891.88;;;2.91;64.90
37066;BME280;22981;43.080;25.550;2023-02-03T04:04:32;99891.20;;;2.93;64.95
37066;BME280;22981;43.080;25.550;2023-02-03T04:07:00;99883.11;;;2.95;64.99
37066;BME280;22981;43.080;25.550;2023-02-03T04:09:28;99888.06;;;2.94;65.01
37066;BME280;22981;43.080;25.550;2023-02-03T04:11:56;99895.00;;;2.95;65.13
37066;BME280;22981;43.080;25.550;2023-02-03T04:14:33;99896.69;;;2.96;65.20
37066;BME280;22981;43.080;25.550;2023-02-03T04:17:04;99910.37;;;2.95;65.26
37066;BME280;22981;43.080;25.550;2023-02-03T04:19:32;99910.73;;;2.96;65.33
37066;BME280;22981;43.080;25.550;2023-02-03T04:21:59;99915.36;;;2.98;65.52
37066;BME280;22981;43.080;25.550;2023-02-03T04:24:27;99915.36;;;2.98;65.52
37066;BME280;22981;43.080;25.550;2023-02-03T04:26:54;99917.36;;;3.00;65.46
37066;BME280;22981;43.080;25.550;2023-02-03T04:29:22;99917.36;;;3.00;65.46
37066;BME280;22981;43.080;25.550;2023-02-03T04:31:50;99924.63;;;3.03;65.53
37066;BME280;22981;43.080;25.550;2023-02-03T04:34:17;99933.75;;;3.04;65.56
37066;BME280;22981;43.080;25.550;2023-02-03T04:36:45;99934.57;;;3.05;65.59
37066;BME280;22981;43.080;25.550;2023-02-03T04:39:12;99930.93;;;3.06;65.63
37066;BME280;22981;43.080;25.550;2023-02-03T04:41:40;99937.70;;;3.08;65.63
37066;BME280;22981;43.080;25.550;2023-02-03T04:44:07;99939.69;;;3.06;65.65
37066;BME280;22981;43.080;25.550;2023-02-03T04:46:35;99928.30;;;3.10;65.67
37066;BME280;22981;43.080;25.550;2023-02-03T04:49:02;99941.88;;;3.15;65.85
37066;BME280;22981;43.080;25.550;2023-02-03T04:51:30;99941.88;;;3.15;65.85
37066;BME280;22981;43.080;25.550;2023-02-03T04:53:57;99938.92;;;3.18;65.62
37066;BME280;22981;43.080;25.550;2023-02-03T04:56:25;99951.15;;;3.19;65.63
37066;BME280;22981;43.080;25.550;2023-02-03T04:58:53;99946.36;;;3.18;65.66
37066;BME280;22981;43.080;25.550;2023-02-03T05:01:20;99959.41;;;3.20;65.68
37066;BME280;22981;43.080;25.550;2023-02-03T05:03:48;99957.59;;;3.20;65.72
37066;BME280;22981;43.080;25.550;2023-02-03T05:06:15;99961.92;;;3.21;65.72
37066;BME280;22981;43.080;25.550;2023-02-03T05:08:43;99964.06;;;3.22;65.77
37066;BME280;22981;43.080;25.550;2023-02-03T05:11:10;99966.36;;;3.21;65.78
37066;BME280;22981;43.080;25.550;2023-02-03T05:13:38;99966.36;;;3.21;65.84
37066;BME280;22981;43.080;25.550;2023-02-03T05:16:06;99964.56;;;3.21;65.86
37066;BME280;22981;43.080;25.550;2023-02-03T05:18:33;99965.53;;;3.20;65.95
37066;BME280;22981;43.080;25.550;2023-02-03T05:21:01;99969.17;;;3.19;66.05
37066;BME280;22981;43.080;25.550;2023-02-03T05:23:28;99977.11;;;3.19;66.09
37066;BME280;22981;43.080;25.550;2023-02-03T05:25:56;99973.97;;;3.20;66.16
37066;BME280;22981;43.080;25.550;2023-02-03T05:28:23;99974.96;;;3.19;66.20
37066;BME280;22981;43.080;25.550;2023-02-03T05:30:51;99986.70;;;3.20;66.27
37066;BME280;22981;43.080;25.550;2023-02-03T05:33:19;99984.05;;;3.20;66.35
37066;BME280;22981;43.080;25.550;2023-02-03T05:35:46;99988.38;;;3.21;66.32
37066;BME280;22981;43.080;25.550;2023-02-03T05:38:14;99994.00;;;3.22;66.31
37066;BME280;22981;43.080;25.550;2023-02-03T05:40:41;99992.18;;;3.23;66.28
37066;BME280;22981;43.080;25.550;2023-02-03T05:43:28;99991.19;;;3.24;66.31
37066;BME280;22981;43.080;25.550;2023-02-03T05:46:00;99988.38;;;3.21;66.28
37066;BME280;22981;43.080;25.550;2023-02-03T05:48:28;99994.50;;;3.22;66.33
37066;BME280;22981;43.080;25.550;2023-02-03T05:50:56;99999.92;;;3.20;66.33
37066;BME280;22981;43.080;25.550;2023-02-03T05:53:25;99998.11;;;3.21;66.37
37066;BME280;22981;43.080;25.550;2023-02-03T05:55:53;100014.84;;;3.21;66.43
37066;BME280;22981;43.080;25.550;2023-02-03T05:58:20;100008.88;;;3.23;66.46
37066;BME280;22981;43.080;25.550;2023-02-03T06:00:48;100006.73;;;3.23;66.39
37066;BME280;22981;43.080;25.550;2023-02-03T06:03:15;100011.36;;;3.25;66.42
37066;BME280;22981;43.080;25.550;2023-02-03T06:05:43;100017.34;;;3.27;66.43
37066;BME280;22981;43.080;25.550;2023-02-03T06:08:11;100033.70;;;3.26;66.41
37066;BME280;22981;43.080;25.550;2023-02-03T06:10:38;100044.13;;;3.28;66.40
37066;BME280;22981;43.080;25.550;2023-02-03T06:13:10;100039.16;;;3.29;66.40
37066;BME280;22981;43.080;25.550;2023-02-03T06:15:39;100037.81;;;3.25;66.40
37066;BME280;22981;43.080;25.550;2023-02-03T06:18:07;100045.29;;;3.25;66.40
37066;BME280;22981;43.080;25.550;2023-02-03T06:20:35;100056.22;;;3.31;66.39
37066;BME280;22981;43.080;25.550;2023-02-03T06:23:02;100047.45;;;3.30;66.37
37066;BME280;22981;43.080;25.550;2023-02-03T06:25:30;100062.17;;;3.33;66.42
37066;BME280;22981;43.080;25.550;2023-02-03T06:27:58;100058.70;;;3.32;66.39
37066;BME280;22981;43.080;25.550;2023-02-03T06:30:25;100070.44;;;3.34;66.38
37066;BME280;22981;43.080;25.550;2023-02-03T06:32:53;100074.27;;;3.35;66.42
37066;BME280;22981;43.080;25.550;2023-02-03T06:35:21;100069.97;;;3.34;66.47
37066;BME280;22981;43.080;25.550;2023-02-03T06:37:48;100079.23;;;3.34;66.50
37066;BME280;22981;43.080;25.550;2023-02-03T06:40:16;100082.21;;;3.35;66.56
37066;BME280;22981;43.080;25.550;2023-02-03T06:42:47;100083.53;;;3.35;66.62
37066;BME280;22981;43.080;25.550;2023-02-03T06:45:16;100087.01;;;3.36;66.57
37066;BME280;22981;43.080;25.550;2023-02-03T06:47:44;100085.19;;;3.36;66.61
37066;BME280;22981;43.080;25.550;2023-02-03T06:50:13;100084.05;;;3.39;66.63
37066;BME280;22981;43.080;25.550;2023-02-03T06:52:44;100078.09;;;3.41;66.67
37066;BME280;22981;43.080;25.550;2023-02-03T06:55:11;100083.91;;;3.44;66.62
37066;BME280;22981;43.080;25.550;2023-02-03T06:57:46;100089.05;;;3.50;66.58
37066;BME280;22981;43.080;25.550;2023-02-03T07:00:15;100081.45;;;3.55;66.50
37066;BME280;22981;43.080;25.550;2023-02-03T07:02:43;100085.13;;;3.62;66.42
37066;BME280;22981;43.080;25.550;2023-02-03T07:05:10;100092.12;;;3.71;66.27
37066;BME280;22981;43.080;25.550;2023-02-03T07:07:38;100086.34;;;3.76;66.08
37066;BME280;22981;43.080;25.550;2023-02-03T07:10:06;100081.57;;;3.84;65.93
37066;BME280;22981;43.080;25.550;2023-02-03T07:12:33;100085.25;;;3.95;65.79
37066;BME280;22981;43.080;25.550;2023-02-03T07:15:07;100089.74;;;4.11;65.62
37066;BME280;22981;43.080;25.550;2023-02-03T07:17:31;100094.44;;;4.29;65.26
37066;BME280;22981;43.080;25.550;2023-02-03T07:19:58;100095.29;;;4.50;64.83
37066;BME280;22981;43.080;25.550;2023-02-03T07:22:26;100096.45;;;4.64;64.49
37066;BME280;22981;43.080;25.550;2023-02-03T07:24:54;100092.62;;;4.74;64.38
37066;BME280;22981;43.080;25.550;2023-02-03T07:27:21;100103.72;;;4.94;64.01
37066;BME280;22981;43.080;25.550;2023-02-03T07:29:49;100102.89;;;5.06;63.82
37066;BME280;22981;43.080;25.550;2023-02-03T07:32:17;100109.34;;;5.08;63.69
37066;BME280;22981;43.080;25.550;2023-02-03T07:34:44;100108.52;;;5.03;63.59
37066;BME280;22981;43.080;25.550;2023-02-03T07:37:12;100121.60;;;5.13;63.37
37066;BME280;22981;43.080;25.550;2023-02-03T07:39:39;100128.05;;;5.26;62.98
37066;BME280;22981;43.080;25.550;2023-02-03T07:42:07;100120.41;;;5.40;62.73
37066;BME280;22981;43.080;25.550;2023-02-03T07:44:35;100120.73;;;5.37;62.41
37066;BME280;22981;43.080;25.550;2023-02-03T07:47:09;100128.22;;;5.25;62.50
37066;BME280;22981;43.080;25.550;2023-02-03T07:49:42;100129.56;;;5.17;62.63
37066;BME280;22981;43.080;25.550;2023-02-03T07:52:12;100132.22;;;5.09;62.80
37066;BME280;22981;43.080;25.550;2023-02-03T07:54:44;100153.81;;;4.97;62.94
37066;BME280;22981;43.080;25.550;2023-02-03T07:57:15;100147.33;;;4.84;62.84
37066;BME280;22981;43.080;25.550;2023-02-03T07:59:43;100159.43;;;4.74;63.01
37066;BME280;22981;43.080;25.550;2023-02-03T08:02:10;100148.98;;;4.64;63.05
37066;BME280;22981;43.080;25.550;2023-02-03T08:04:38;100151.31;;;4.59;63.21
37066;BME280;22981;43.080;25.550;2023-02-03T08:07:05;100151.30;;;4.55;63.21
37066;BME280;22981;43.080;25.550;2023-02-03T08:09:33;100150.12;;;4.53;63.37
37066;BME280;22981;43.080;25.550;2023-02-03T08:12:00;100161.08;;;4.55;63.43
37066;BME280;22981;43.080;25.550;2023-02-03T08:14:28;100164.06;;;4.56;63.40
37066;BME280;22981;43.080;25.550;2023-02-03T08:16:56;100160.91;;;4.56;63.38
37066;BME280;22981;43.080;25.550;2023-02-03T08:19:24;100165.39;;;4.60;63.40
37066;BME280;22981;43.080;25.550;2023-02-03T08:21:51;100167.23;;;4.63;63.36
37066;BME280;22981;43.080;25.550;2023-02-03T08:24:19;100153.81;;;4.93;63.33
37066;BME280;22981;43.080;25.550;2023-02-03T08:26:47;100160.55;;;5.45;62.80
37066;BME280;22981;43.080;25.550;2023-02-03T08:29:15;100161.73;;;5.90;61.70
37066;BME280;22981;43.080;25.550;2023-02-03T08:31:43;100150.80;;;6.24;60.92
37066;BME280;22981;43.080;25.550;2023-02-03T08:34:10;100151.63;;;6.56;60.44
37066;BME280;22981;43.080;25.550;2023-02-03T08:36:38;100151.20;;;6.67;59.71
37066;BME280;22981;43.080;25.550;2023-02-03T08:39:06;100158.84;;;6.70;59.74
37066;BME280;22981;43.080;25.550;2023-02-03T08:41:34;100158.59;;;6.57;59.43
37066;BME280;22981;43.080;25.550;2023-02-03T08:44:01;100157.20;;;6.38;59.56
37066;BME280;22981;43.080;25.550;2023-02-03T08:46:29;100156.38;;;6.37;59.76
37066;BME280;22981;43.080;25.550;2023-02-03T08:48:56;100148.59;;;6.36;59.42
37066;BME280;22981;43.080;25.550;2023-02-03T08:51:24;100154.77;;;6.28;59.59
37066;BME280;22981;43.080;25.550;2023-02-03T08:53:51;100147.20;;;6.17;59.26
37066;BME280;22981;43.080;25.550;2023-02-03T08:56:19;100144.16;;;6.24;59.46
37066;BME280;22981;43.080;25.550;2023-02-03T08:58:47;100137.39;;;6.44;59.21
37066;BME280;22981;43.080;25.550;2023-02-03T09:01:21;100130.02;;;6.50;58.71
37066;BME280;22981;43.080;25.550;2023-02-03T09:03:53;100145.87;;;6.44;58.73
37066;BME280;22981;43.080;25.550;2023-02-03T09:06:23;100141.34;;;6.25;58.60
37066;BME280;22981;43.080;25.550;2023-02-03T09:08:51;100158.20;;;6.10;58.75
37066;BME280;22981;43.080;25.550;2023-02-03T09:11:19;100151.12;;;6.25;58.76
37066;BME280;22981;43.080;25.550;2023-02-03T09:13:47;100143.61;;;6.33;58.32
37066;BME280;22981;43.080;25.550;2023-02-03T09:16:17;100154.02;;;6.42;58.27
37066;BME280;22981;43.080;25.550;2023-02-03T09:18:46;100163.87;;;6.65;58.15
37066;BME280;22981;43.080;25.550;2023-02-03T09:21:15;100165.27;;;6.75;57.88
37066;BME280;22981;43.080;25.550;2023-02-03T09:23:43;100172.30;;;6.72;57.81
37066;BME280;22981;43.080;25.550;2023-02-03T09:26:13;100165.83;;;6.67;57.77
37066;BME280;22981;43.080;25.550;2023-02-03T09:28:41;100169.19;;;6.65;57.74
37066;BME280;22981;43.080;25.550;2023-02-03T09:31:11;100168.66;;;6.69;57.65
37066;BME280;22981;43.080;25.550;2023-02-03T09:33:38;100173.36;;;6.86;57.33
37066;BME280;22981;43.080;25.550;2023-02-03T09:36:07;100170.78;;;7.16;56.95
37066;BME280;22981;43.080;25.550;2023-02-03T09:38:35;100174.27;;;7.16;56.21
37066;BME280;22981;43.080;25.550;2023-02-03T09:44:05;100180.06;;;6.78;56.79
37066;BME280;22981;43.080;25.550;2023-02-03T09:46:36;100164.52;;;7.09;56.51
37066;BME280;22981;43.080;25.550;2023-02-03T09:49:05;100169.31;;;7.47;56.05
37066;BME280;22981;43.080;25.550;2023-02-03T09:51:35;100160.73;;;7.85;55.83
37066;BME280;22981;43.080;25.550;2023-02-03T09:54:04;100159.84;;;8.03;55.69
37066;BME280;22981;43.080;25.550;2023-02-03T09:56:36;100156.92;;;8.09;55.31
37066;BME280;22981;43.080;25.550;2023-02-03T09:59:07;100164.33;;;7.92;55.35
37066;BME280;22981;43.080;25.550;2023-02-03T10:02:01;100167.27;;;7.68;55.33
37066;BME280;22981;43.080;25.550;2023-02-03T10:06:57;100172.02;;;7.58;55.91
37066;BME280;22981;43.080;25.550;2023-02-03T10:09:30;100160.80;;;7.92;55.46
37066;BME280;22981;43.080;25.550;2023-02-03T10:22:47;100150.66;;;7.13;56.38
37066;BME280;22981;43.080;25.550;2023-02-03T10:27:58;100135.14;;;6.98;56.81
37066;BME280;22981;43.080;25.550;2023-02-03T10:30:28;100140.81;;;6.99;56.91
37066;BME280;22981;43.080;25.550;2023-02-03T10:33:14;100134.70;;;6.94;56.93
37066;BME280;22981;43.080;25.550;2023-02-03T10:35:50;100139.23;;;6.90;57.19
37066;BME280;22981;43.080;25.550;2023-02-03T10:41:04;100138.41;;;6.66;57.11
37066;BME280;22981;43.080;25.550;2023-02-03T10:43:32;100142.13;;;6.57;57.23
37066;BME280;22981;43.080;25.550;2023-02-03T10:46:19;100144.42;;;6.64;57.35
37066;BME280;22981;43.080;25.550;2023-02-03T10:48:47;100136.94;;;6.64;57.15
37066;BME280;22981;43.080;25.550;2023-02-03T10:51:23;100135.64;;;6.60;57.33
37066;BME280;22981;43.080;25.550;2023-02-03T10:53:52;100126.80;;;6.59;57.27
37066;BME280;22981;43.080;25.550;2023-02-03T10:56:25;100131.75;;;6.66;57.32
37066;BME280;22981;43.080;25.550;2023-02-03T10:58:55;100119.29;;;7.05;57.02
37066;BME280;22981;43.080;25.550;2023-02-03T11:01:48;100115.61;;;7.39;56.32
37066;BME280;22981;43.080;25.550;2023-02-03T11:04:03;100117.30;;;7.66;55.80
37066;BME280;22981;43.080;25.550;2023-02-03T11:06:32;100119.46;;;7.66;55.31
37066;BME280;22981;43.080;25.550;2023-02-03T11:09:01;100119.39;;;7.60;55.06
37066;BME280;22981;43.080;25.550;2023-02-03T11:11:31;100104.67;;;7.49;55.23
37066;BME280;22981;43.080;25.550;2023-02-03T11:16:34;100108.33;;;7.37;55.75
37066;BME280;22981;43.080;25.550;2023-02-03T11:19:14;100108.23;;;7.45;55.94
37066;BME280;22981;43.080;25.550;2023-02-03T11:21:49;100099.42;;;7.70;55.77
37066;BME280;22981;43.080;25.550;2023-02-03T11:24:21;100086.70;;;8.13;54.90
37066;BME280;22981;43.080;25.550;2023-02-03T11:29:38;100078.05;;;8.68;53.57
37066;BME280;22981;43.080;25.550;2023-02-03T11:32:18;100072.67;;;9.00;52.97
37066;BME280;22981;43.080;25.550;2023-02-03T11:35:01;100069.35;;;9.26;52.28
37066;BME280;22981;43.080;25.550;2023-02-03T11:37:36;100074.33;;;9.19;51.96
37066;BME280;22981;43.080;25.550;2023-02-03T11:40:11;100075.59;;;8.95;52.40
37066;BME280;22981;43.080;25.550;2023-02-03T11:45:28;100067.92;;;8.96;52.73
37066;BME280;22981;43.080;25.550;2023-02-03T11:59:34;100050.43;;;8.65;51.85
37066;BME280;22981;43.080;25.550;2023-02-03T12:05:05;100051.38;;;8.96;51.50
37066;BME280;22981;43.080;25.550;2023-02-03T12:07:52;100050.13;;;8.82;51.25
37066;BME280;22981;43.080;25.550;2023-02-03T12:10:40;100046.16;;;8.71;51.14
37066;BME280;22981;43.080;25.550;2023-02-03T12:21:33;100044.20;;;9.32;49.83
37066;BME280;22981;43.080;25.550;2023-02-03T12:26:50;100042.73;;;8.56;50.86
37066;BME280;22981;43.080;25.550;2023-02-03T12:29:19;100044.37;;;8.14;51.68
37066;BME280;22981;43.080;25.550;2023-02-03T12:34:40;100031.28;;;7.97;52.43
37066;BME280;22981;43.080;25.550;2023-02-03T12:37:11;100043.16;;;8.16;52.25
37066;BME280;22981;43.080;25.550;2023-02-03T12:39:47;100035.16;;;8.06;52.28
37066;BME280;22981;43.080;25.550;2023-02-03T12:42:29;100034.68;;;7.81;52.51
37066;BME280;22981;43.080;25.550;2023-02-03T12:45:11;100042.53;;;7.78;52.95
37066;BME280;22981;43.080;25.550;2023-02-03T12:47:50;100043.76;;;7.86;52.73
37066;BME280;22981;43.080;25.550;2023-02-03T12:50:20;100037.40;;;7.76;52.58
37066;BME280;22981;43.080;25.550;2023-02-03T12:52:57;100039.03;;;7.67;52.56
37066;BME280;22981;43.080;25.550;2023-02-03T12:55:46;100053.38;;;7.51;52.63
37066;BME280;22981;43.080;25.550;2023-02-03T13:00:33;100053.54;;;7.24;53.06
37066;BME280;22981;43.080;25.550;2023-02-03T13:06:07;100059.23;;;7.02;53.56
37066;BME280;22981;43.080;25.550;2023-02-03T13:16:38;100046.64;;;6.62;54.45
37066;BME280;22981;43.080;25.550;2023-02-03T13:19:16;100052.82;;;6.59;54.60
37066;BME280;22981;43.080;25.550;2023-02-03T13:21:39;100041.04;;;6.57;54.67
37066;BME280;22981;43.080;25.550;2023-02-03T13:24:08;100048.52;;;6.58;54.69
37066;BME280;22981;43.080;25.550;2023-02-03T13:29:37;100047.56;;;6.50;54.70
37066;BME280;22981;43.080;25.550;2023-02-03T13:35:12;100045.47;;;6.42;54.67
37066;BME280;22981;43.080;25.550;2023-02-03T13:37:47;100042.18;;;6.40;54.57
37066;BME280;22981;43.080;25.550;2023-02-03T13:42:56;100030.41;;;6.38;54.48
37066;BME280;22981;43.080;25.550;2023-02-03T13:45:40;100032.20;;;6.38;54.47
37066;BME280;22981;43.080;25.550;2023-02-03T13:48:16;100029.90;;;6.39;54.44
37066;BME280;22981;43.080;25.550;2023-02-03T13:50:46;100026.57;;;6.37;54.20
37066;BME280;22981;43.080;25.550;2023-02-03T13:53:17;100026.44;;;6.34;53.98
37066;BME280;22981;43.080;25.550;2023-02-03T13:58:29;100019.53;;;6.21;53.55
37066;BME280;22981;43.080;25.550;2023-02-03T14:01:00;100019.41;;;6.18;53.55
37066;BME280;22981;43.080;25.550;2023-02-03T14:05:59;100019.25;;;6.16;53.65
37066;BME280;22981;43.080;25.550;2023-02-03T14:16:39;100018.38;;;6.00;53.84
37066;BME280;22981;43.080;25.550;2023-02-03T14:19:09;100023.72;;;5.96;53.77
37066;BME280;22981;43.080;25.550;2023-02-03T14:21:43;100015.42;;;5.95;53.80
37066;BME280;22981;43.080;25.550;2023-02-03T14:24:11;100019.89;;;5.95;53.82
37066;BME280;22981;43.080;25.550;2023-02-03T14:26:44;100012.98;;;6.13;53.77
37066;BME280;22981;43.080;25.550;2023-02-03T14:29:30;100014.63;;;6.33;53.44
37066;BME280;22981;43.080;25.550;2023-02-03T14:32:11;100015.39;;;6.41;53.26
37066;BME280;22981;43.080;25.550;2023-02-03T14:34:47;100017.42;;;6.39;53.29
37066;BME280;22981;43.080;25.550;2023-02-03T14:37:25;100016.63;;;6.35;53.37
37066;BME280;22981;43.080;25.550;2023-02-03T15:00:00;100025.56;;;5.88;53.86
37066;BME280;22981;43.080;25.550;2023-02-03T15:02:28;100030.08;;;5.83;53.73
37066;BME280;22981;43.080;25.550;2023-02-03T15:07:43;100027.28;;;5.76;53.58
37066;BME280;22981;43.080;25.550;2023-02-03T15:10:29;100026.31;;;5.69;53.59
37066;BME280;22981;43.080;25.550;2023-02-03T15:12:53;100027.20;;;5.62;53.66
37066;BME280;22981;43.080;25.550;2023-02-03T15:15:23;100038.38;;;5.53;53.58
37066;BME280;22981;43.080;25.550;2023-02-03T15:17:52;100045.36;;;5.46;53.65
37066;BME280;22981;43.080;25.550;2023-02-03T15:20:32;100043.87;;;5.39;53.70
37066;BME280;22981;43.080;25.550;2023-02-03T15:23:01;100045.08;;;5.33;53.76
37066;BME280;22981;43.080;25.550;2023-02-03T15:25:30;100048.41;;;5.26;53.79